createdAt,value
2019-03-05T00:01:40.854Z,5.10
2019-03-05T00:04:11.145Z,5.20
2019-03-05T00:06:41.278Z,5.20
2019-03-05T00:09:16.518Z,5.10
2019-03-05T00:11:46.697Z,5.10
2019-03-05T00:14:18.827Z,5.10
2019-03-05T00:16:48.755Z,5.10
2019-03-05T00:19:19.086Z,5.10
2019-03-05T00:21:49.325Z,5.10
2019-03-05T00:24:55.135Z,5.10
2019-03-05T00:27:25.354Z,5.20
2019-03-05T00:30:16.988Z,5.20
2019-03-05T00:32:49.056Z,5.20
2019-03-05T00:35:28.773Z,5.30
2019-03-05T00:38:07.446Z,5.40
2019-03-05T00:40:55.965Z,5.30
2019-03-05T00:43:40.133Z,5.30
2019-03-05T00:46:23.832Z,5.30
2019-03-05T00:49:02.405Z,5.20
2019-03-05T00:51:48.747Z,5.20
2019-03-05T00:57:05.585Z,5.10
2019-03-05T01:00:17.424Z,4.90
2019-03-05T01:02:54.349Z,4.90
2019-03-05T01:06:17.829Z,5.00
2019-03-05T01:08:48.189Z,5.10
2019-03-05T01:11:19.534Z,5.20
2019-03-05T01:13:49.754Z,5.10
2019-03-05T01:16:23.510Z,5.20
2019-03-05T01:18:53.710Z,5.20
2019-03-05T01:21:23.850Z,5.10
2019-03-05T01:23:54.276Z,5.20
2019-03-05T01:26:24.595Z,5.20
2019-03-05T01:28:54.720Z,5.20
2019-03-05T01:31:53.525Z,5.20
2019-03-05T01:34:38.184Z,5.10
2019-03-05T01:37:08.650Z,5.30
2019-03-05T01:39:57.780Z,5.20
2019-03-05T01:42:28.128Z,5.10
2019-03-05T01:44:58.344Z,5.00
2019-03-05T01:47:28.581Z,5.00
2019-03-05T01:49:58.865Z,5.20
2019-03-05T01:52:29.060Z,5.30
2019-03-05T01:54:59.406Z,5.30
2019-03-05T01:57:30.963Z,5.20
2019-03-05T02:00:02.871Z,5.50
2019-03-05T02:02:34.887Z,5.50
2019-03-05T02:05:05.714Z,5.40
2019-03-05T02:07:35.941Z,5.20
2019-03-05T02:10:12.846Z,5.10
2019-03-05T02:12:43.069Z,4.90
2019-03-05T02:15:13.432Z,4.70
2019-03-05T02:17:43.617Z,4.50
2019-03-05T02:20:17.503Z,4.30
2019-03-05T02:22:55.488Z,4.20
2019-03-05T02:26:00.472Z,4.30
2019-03-05T02:28:52.660Z,4.30
2019-03-05T02:32:17.760Z,4.50
2019-03-05T02:35:19.420Z,4.90
2019-03-05T02:38:28.489Z,4.80
2019-03-05T02:41:42.315Z,4.70
2019-03-05T02:44:49.664Z,4.70
2019-03-05T02:48:03.647Z,4.70
2019-03-05T02:51:06.465Z,4.60
2019-03-05T02:54:13.282Z,4.50
2019-03-05T02:56:59.411Z,4.40
2019-03-05T02:59:30.629Z,4.40
2019-03-05T03:02:15.719Z,4.40
2019-03-05T03:04:48.607Z,4.50
2019-03-05T03:07:18.850Z,4.60
2019-03-05T03:10:15.271Z,4.30
2019-03-05T03:12:45.765Z,3.70
2019-03-05T03:15:21.454Z,3.50
2019-03-05T03:17:52.142Z,3.20
2019-03-05T03:20:23.689Z,3.00
2019-03-05T03:22:54.153Z,2.70
2019-03-05T03:25:25.013Z,2.60
2019-03-05T03:27:55.248Z,2.50
2019-03-05T03:30:27.580Z,2.40
2019-03-05T03:32:57.950Z,2.30
2019-03-05T03:35:28.297Z,2.10
2019-03-05T03:37:58.509Z,2.10
2019-03-05T03:40:28.706Z,2.10
2019-03-05T03:42:58.954Z,2.00
2019-03-05T03:45:29.414Z,2.00
2019-03-05T03:47:59.849Z,2.00
2019-03-05T03:50:30.043Z,2.00
2019-03-05T03:53:01.058Z,2.00
2019-03-05T03:55:31.261Z,2.20
2019-03-05T03:58:01.806Z,2.30
2019-03-05T04:00:33.064Z,2.30
2019-03-05T04:03:03.182Z,2.20
2019-03-05T04:05:33.407Z,1.70
2019-03-05T04:08:10.526Z,1.60
2019-03-05T04:10:40.709Z,1.60
2019-03-05T04:13:13.202Z,1.60
2019-03-05T04:15:44.410Z,1.70
2019-03-05T04:18:16.994Z,1.80
2019-03-05T04:20:54.919Z,1.80
2019-03-05T04:23:25.262Z,2.00
2019-03-05T04:25:56.974Z,2.10
2019-03-05T04:28:28.583Z,2.20
2019-03-05T04:31:00.252Z,2.30
2019-03-05T04:33:30.536Z,2.30
2019-03-05T04:36:00.717Z,2.40
2019-03-05T04:38:30.932Z,2.40
2019-03-05T04:41:11.658Z,2.30
2019-03-05T04:43:41.754Z,2.10
2019-03-05T04:46:30.836Z,2.10
2019-03-05T04:49:21.213Z,2.10
2019-03-05T04:51:55.258Z,2.20
2019-03-05T04:54:25.508Z,2.20
2019-03-05T04:56:55.690Z,2.30
2019-03-05T04:59:25.945Z,2.40
2019-03-05T05:01:56.153Z,2.50
2019-03-05T05:04:26.376Z,2.50
2019-03-05T05:06:56.601Z,2.40
2019-03-05T05:09:26.762Z,2.30
2019-03-05T05:11:56.935Z,2.20
2019-03-05T05:14:27.165Z,2.00
2019-03-05T05:16:57.341Z,1.80
2019-03-05T05:19:27.617Z,1.70
2019-03-05T05:21:57.831Z,1.70
2019-03-05T05:24:28.005Z,1.70
2019-03-05T05:26:58.173Z,1.70
2019-03-05T05:29:28.433Z,1.70
2019-03-05T05:31:58.585Z,1.50
2019-03-05T05:34:28.654Z,1.40
2019-03-05T05:36:58.904Z,1.40
2019-03-05T05:40:04.934Z,1.40
2019-03-05T05:42:35.385Z,1.40
2019-03-05T05:45:06.953Z,1.40
2019-03-05T05:47:37.117Z,1.50
2019-03-05T05:50:07.703Z,1.40
2019-03-05T05:52:37.955Z,1.40
2019-03-05T05:55:09.685Z,1.40
2019-03-05T05:57:39.941Z,1.40
2019-03-05T06:00:12.784Z,1.50
2019-03-05T06:02:43.006Z,1.70
2019-03-05T06:05:13.220Z,1.90
2019-03-05T06:07:44.396Z,2.00
2019-03-05T06:10:14.999Z,2.00
2019-03-05T06:12:45.270Z,2.10
2019-03-05T06:15:15.632Z,2.10
2019-03-05T06:17:45.894Z,2.00
2019-03-05T06:20:18.737Z,1.90
2019-03-05T06:22:52.137Z,1.80
2019-03-05T06:25:22.477Z,1.80
2019-03-05T06:27:52.547Z,1.70
2019-03-05T06:30:22.801Z,1.60
2019-03-05T06:32:53.061Z,1.60
2019-03-05T06:35:23.264Z,1.60
2019-03-05T06:37:53.596Z,1.60
2019-03-05T06:40:23.827Z,1.60
2019-03-05T06:42:53.998Z,1.60
2019-03-05T06:45:24.180Z,1.70
2019-03-05T06:47:54.391Z,1.60
2019-03-05T06:50:24.632Z,1.70
2019-03-05T06:52:55.007Z,1.70
2019-03-05T06:55:25.190Z,1.70
2019-03-05T06:57:55.380Z,1.70
2019-03-05T07:00:30.821Z,1.80
2019-03-05T07:03:01.930Z,1.90
2019-03-05T07:06:07.993Z,2.10
2019-03-05T07:08:51.307Z,2.40
2019-03-05T07:11:59.738Z,2.70
2019-03-05T07:14:38.983Z,2.90
2019-03-05T07:17:27.202Z,3.10
2019-03-05T07:20:23.858Z,3.20
2019-03-05T07:23:26.333Z,3.50
2019-03-05T07:25:57.629Z,3.50
2019-03-05T07:28:29.761Z,3.50
2019-03-05T07:30:59.863Z,3.70
2019-03-05T07:33:30.019Z,3.70
2019-03-05T07:36:00.387Z,3.80
2019-03-05T07:38:30.654Z,3.90
2019-03-05T07:41:00.857Z,4.00
2019-03-05T07:43:36.510Z,4.10
2019-03-05T07:46:04.207Z,4.10
2019-03-05T07:48:34.416Z,4.30
2019-03-05T07:51:04.634Z,4.40
2019-03-05T07:53:34.985Z,4.40
2019-03-05T07:56:05.177Z,4.50
2019-03-05T07:58:35.512Z,4.50
2019-03-05T08:01:06.373Z,4.60
2019-03-05T08:03:37.593Z,4.70
2019-03-05T08:06:07.661Z,4.90
2019-03-05T08:09:15.967Z,5.00
2019-03-05T08:11:46.174Z,5.10
2019-03-05T08:14:57.183Z,5.20
2019-03-05T08:17:27.222Z,5.30
2019-03-05T08:19:57.465Z,5.40
2019-03-05T08:22:27.770Z,5.50
2019-03-05T08:24:57.863Z,5.60
2019-03-05T08:27:28.024Z,5.60
2019-03-05T08:29:58.245Z,5.60
2019-03-05T08:32:28.291Z,5.60
2019-03-05T08:34:58.482Z,5.60
2019-03-05T08:37:28.866Z,5.70
2019-03-05T08:39:58.907Z,5.80
2019-03-05T08:42:29.029Z,5.90
2019-03-05T08:44:59.168Z,5.90
2019-03-05T08:47:29.365Z,6.10
2019-03-05T08:49:59.604Z,6.10
2019-03-05T08:52:29.797Z,6.20
2019-03-05T08:55:00.004Z,6.20
2019-03-05T08:57:30.246Z,6.50
2019-03-05T09:00:00.550Z,6.60
2019-03-05T09:02:30.644Z,6.80
2019-03-05T09:05:00.984Z,7.00
2019-03-05T09:07:31.409Z,7.10
2019-03-05T09:10:01.741Z,7.20
2019-03-05T09:12:31.831Z,7.20
2019-03-05T09:15:02.081Z,7.20
2019-03-05T09:17:32.432Z,7.20
2019-03-05T09:20:03.112Z,7.30
2019-03-05T09:22:33.292Z,7.40
2019-03-05T09:25:04.158Z,7.50
2019-03-05T09:27:34.289Z,7.60
2019-03-05T09:30:05.249Z,7.70
2019-03-05T09:32:35.497Z,8.00
2019-03-05T09:35:06.408Z,8.10
2019-03-05T09:37:43.097Z,8.20
2019-03-05T09:40:18.600Z,8.30
2019-03-05T09:42:56.065Z,8.40
2019-03-05T09:45:32.135Z,8.60
2019-03-05T09:48:06.024Z,8.70
2019-03-05T09:50:41.425Z,8.80
2019-03-05T09:53:12.519Z,9.00
2019-03-05T09:55:49.834Z,9.00
2019-03-05T09:58:20.668Z,9.10
2019-03-05T10:00:51.033Z,9.30
2019-03-05T10:03:21.228Z,9.50
2019-03-05T10:05:52.403Z,9.60
2019-03-05T10:08:31.945Z,9.90
2019-03-05T10:10:54.552Z,10.00
2019-03-05T10:13:24.767Z,10.00
2019-03-05T10:15:55.358Z,10.30
2019-03-05T10:18:25.461Z,10.40
2019-03-05T10:20:55.688Z,10.60
2019-03-05T10:23:25.910Z,10.80
2019-03-05T10:25:57.101Z,10.70
2019-03-05T10:28:27.325Z,10.80
2019-03-05T10:30:57.373Z,10.90
2019-03-05T10:33:27.565Z,11.00
2019-03-05T10:35:58.356Z,11.10
2019-03-05T10:38:28.517Z,11.20
2019-03-05T10:40:59.122Z,11.40
2019-03-05T10:43:29.285Z,11.60
2019-03-05T10:45:59.697Z,11.70
2019-03-05T10:48:30.541Z,11.80
2019-03-05T10:51:01.111Z,12.00
2019-03-05T10:53:31.481Z,12.10
2019-03-05T10:56:01.603Z,12.20
2019-03-05T10:58:34.219Z,12.40
2019-03-05T11:01:05.629Z,12.50
2019-03-05T11:03:35.957Z,12.60
2019-03-05T11:06:07.022Z,12.70
2019-03-05T11:08:38.855Z,12.80
2019-03-05T11:11:13.434Z,12.90
2019-03-05T11:13:41.018Z,13.00
2019-03-05T11:16:11.572Z,13.20
2019-03-05T11:18:41.998Z,13.30
2019-03-05T11:21:12.268Z,13.30
2019-03-05T11:23:42.485Z,13.40
2019-03-05T11:26:12.593Z,13.60
2019-03-05T11:28:43.265Z,13.80
2019-03-05T11:31:14.113Z,13.90
2019-03-05T11:33:44.292Z,14.00
2019-03-05T11:36:14.673Z,14.10
2019-03-05T11:38:45.140Z,14.20
2019-03-05T11:41:15.413Z,14.80
2019-03-05T11:43:45.586Z,15.50
2019-03-05T11:46:18.336Z,16.10
2019-03-05T11:48:48.598Z,16.60
2019-03-05T11:51:18.739Z,17.10
2019-03-05T11:53:49.032Z,17.30
2019-03-05T11:56:19.409Z,17.50
2019-03-05T11:58:49.601Z,17.60
2019-03-05T12:01:27.329Z,17.40
2019-03-05T12:03:57.346Z,16.90
2019-03-05T12:06:27.956Z,17.70
2019-03-05T12:09:00.301Z,18.10
2019-03-05T12:11:30.658Z,18.40
2019-03-05T12:14:00.893Z,18.50
2019-03-05T12:16:31.442Z,18.20
2019-03-05T12:19:03.041Z,17.90
2019-03-05T12:21:35.374Z,18.40
2019-03-05T12:24:05.408Z,18.50
2019-03-05T12:26:35.725Z,19.20
2019-03-05T12:29:06.016Z,19.30
2019-03-05T12:31:36.445Z,18.80
2019-03-05T12:34:15.949Z,19.20
2019-03-05T12:36:46.069Z,19.80
2019-03-05T12:39:19.972Z,20.10
2019-03-05T12:41:53.611Z,20.20
2019-03-05T12:44:23.615Z,19.70
2019-03-05T12:46:53.716Z,19.60
2019-03-05T12:49:23.675Z,19.40
2019-03-05T12:51:53.839Z,19.80
2019-03-05T12:54:23.978Z,19.50
2019-03-05T12:56:53.870Z,19.60
2019-03-05T12:59:24.009Z,20.10
2019-03-05T13:01:54.458Z,20.60
2019-03-05T13:04:24.375Z,21.40
2019-03-05T13:06:54.554Z,21.80
2019-03-05T13:09:24.440Z,22.90
2019-03-05T13:11:55.696Z,23.70
2019-03-05T13:14:25.548Z,23.50
2019-03-05T13:16:55.764Z,23.50
2019-03-05T13:19:26.033Z,23.80
2019-03-05T13:21:55.885Z,23.50
2019-03-05T13:24:25.995Z,23.30
2019-03-05T13:26:56.232Z,23.80
2019-03-05T13:29:26.097Z,23.50
2019-03-05T13:31:55.951Z,23.20
2019-03-05T13:34:25.873Z,22.70
2019-03-05T13:36:55.699Z,22.10
2019-03-05T13:39:25.553Z,23.30
2019-03-05T13:41:55.660Z,23.10
2019-03-05T13:44:34.615Z,22.80
2019-03-05T13:47:06.471Z,23.40
2019-03-05T13:49:58.793Z,23.60
2019-03-05T13:52:57.011Z,23.90
2019-03-05T13:56:05.952Z,23.70
2019-03-05T13:59:18.984Z,23.60
2019-03-05T14:01:49.247Z,23.60
2019-03-05T14:04:25.665Z,24.90
2019-03-05T14:07:32.846Z,25.10
2019-03-05T14:10:03.074Z,24.40
2019-03-05T14:12:34.270Z,24.50
2019-03-05T14:15:04.652Z,24.70
2019-03-05T14:17:38.846Z,24.50
2019-03-05T14:20:12.122Z,25.60
2019-03-05T14:22:42.358Z,26.30
2019-03-05T14:25:13.706Z,24.80
2019-03-05T14:27:44.200Z,23.60
2019-03-05T14:30:17.112Z,23.60
2019-03-05T14:32:47.598Z,23.30
2019-03-05T14:35:19.853Z,24.50
2019-03-05T14:37:50.295Z,25.90
2019-03-05T14:40:25.114Z,23.30
2019-03-05T14:42:55.568Z,23.40
2019-03-05T14:45:27.908Z,25.10
2019-03-05T14:47:59.718Z,25.90
2019-03-05T14:50:30.084Z,24.50
2019-03-05T14:53:00.422Z,25.80
2019-03-05T14:55:30.683Z,25.40
2019-03-05T14:58:00.829Z,25.20
2019-03-05T15:00:31.031Z,24.60
2019-03-05T15:03:01.275Z,24.00
2019-03-05T15:05:31.498Z,24.00
2019-03-05T15:08:01.823Z,24.00
2019-03-05T15:10:32.036Z,24.50
2019-03-05T15:13:14.918Z,25.00
2019-03-05T15:15:35.134Z,25.00
2019-03-05T15:18:05.626Z,24.60
2019-03-05T15:20:35.848Z,25.20
2019-03-05T15:23:05.978Z,25.60
2019-03-05T15:25:36.167Z,25.80
2019-03-05T15:28:06.280Z,23.70
2019-03-05T15:30:36.472Z,23.00
2019-03-05T15:33:06.761Z,23.60
2019-03-05T15:35:36.944Z,22.90
2019-03-05T15:38:07.419Z,22.50
2019-03-05T15:40:37.759Z,22.00
2019-03-05T15:43:08.019Z,22.40
2019-03-05T15:45:38.283Z,21.90
2019-03-05T15:48:08.942Z,22.60
2019-03-05T15:50:39.155Z,23.60
2019-03-05T15:53:10.135Z,24.00
2019-03-05T15:55:40.583Z,24.10
2019-03-05T15:58:11.138Z,24.00
2019-03-05T16:00:43.169Z,24.20
2019-03-05T16:03:13.474Z,24.80
2019-03-05T16:05:44.147Z,25.30
2019-03-05T16:08:15.113Z,25.40
2019-03-05T16:10:46.320Z,25.50
2019-03-05T16:13:19.421Z,25.30
2019-03-05T16:15:48.543Z,25.80
2019-03-05T16:18:20.161Z,24.60
2019-03-05T16:20:50.930Z,25.30
2019-03-05T16:23:24.282Z,25.40
2019-03-05T16:25:54.992Z,25.40
2019-03-05T16:28:26.900Z,25.20
2019-03-05T16:31:23.138Z,25.30
2019-03-05T16:34:24.809Z,25.30
2019-03-05T16:37:11.925Z,25.20
2019-03-05T16:39:58.119Z,24.60
2019-03-05T16:42:42.016Z,24.90
2019-03-05T16:45:32.045Z,25.10
2019-03-05T16:48:30.323Z,25.20
2019-03-05T16:51:21.126Z,25.20
2019-03-05T16:54:09.169Z,25.00
2019-03-05T16:57:04.373Z,24.50
2019-03-05T16:59:53.267Z,23.60
2019-03-05T17:02:45.468Z,22.80
2019-03-05T17:05:39.036Z,21.70
2019-03-05T17:08:19.909Z,20.70
2019-03-05T17:11:15.216Z,19.00
2019-03-05T17:13:45.337Z,17.60
2019-03-05T17:16:15.578Z,16.30
2019-03-05T17:18:45.965Z,15.50
2019-03-05T17:21:17.046Z,14.80
2019-03-05T17:23:47.384Z,14.10
2019-03-05T17:26:17.669Z,13.60
2019-03-05T17:28:48.166Z,13.10
2019-03-05T17:31:18.277Z,12.70
2019-03-05T17:33:48.550Z,12.40
2019-03-05T17:36:19.304Z,12.10
2019-03-05T17:38:49.375Z,11.60
2019-03-05T17:41:19.539Z,11.30
2019-03-05T17:43:49.756Z,11.00
2019-03-05T17:46:19.956Z,10.60
2019-03-05T17:48:50.281Z,10.30
2019-03-05T17:51:20.513Z,10.20
2019-03-05T17:53:50.716Z,10.10
2019-03-05T17:56:20.967Z,10.00
2019-03-05T17:58:51.098Z,9.90
2019-03-05T18:01:22.183Z,9.70
2019-03-05T18:03:52.679Z,9.60
2019-03-05T18:06:23.174Z,9.50
2019-03-05T18:08:54.017Z,9.40
2019-03-05T18:11:25.688Z,9.30
2019-03-05T18:13:56.648Z,9.20
2019-03-05T18:16:27.265Z,9.10
2019-03-05T18:18:57.908Z,9.00
2019-03-05T18:21:29.945Z,9.00
2019-03-05T18:24:03.297Z,8.80
2019-03-05T18:26:34.711Z,8.80
2019-03-05T18:29:05.485Z,9.20
2019-03-05T18:31:39.001Z,9.40
2019-03-05T18:34:11.635Z,9.50
2019-03-05T18:36:42.810Z,9.30
2019-03-05T18:39:14.518Z,9.00
2019-03-05T18:41:45.640Z,8.80
2019-03-05T18:44:17.008Z,8.60
2019-03-05T18:46:47.978Z,8.40
2019-03-05T18:49:19.377Z,8.20
2019-03-05T18:51:50.811Z,8.10
2019-03-05T18:54:22.037Z,8.20
2019-03-05T18:56:53.592Z,8.30
2019-03-05T18:59:25.136Z,8.50
2019-03-05T19:01:57.095Z,8.40
2019-03-05T19:04:28.966Z,8.30
2019-03-05T19:07:00.963Z,8.20
2019-03-05T19:09:32.505Z,8.10
2019-03-05T19:12:04.068Z,8.10
2019-03-05T19:14:35.044Z,8.20
2019-03-05T19:17:09.405Z,8.20
2019-03-05T19:19:41.874Z,8.20
2019-03-05T19:22:13.446Z,8.10
2019-03-05T19:24:45.105Z,8.00
2019-03-05T19:27:25.677Z,7.80
2019-03-05T19:29:49.555Z,7.60
2019-03-05T19:32:21.027Z,7.30
2019-03-05T19:34:52.360Z,6.80
2019-03-05T19:37:23.536Z,6.40
2019-03-05T19:39:54.728Z,6.20
2019-03-05T19:42:26.132Z,6.00
2019-03-05T19:44:57.811Z,5.80
2019-03-05T19:47:29.253Z,5.70
2019-03-05T19:50:00.829Z,5.60
2019-03-05T19:52:35.886Z,5.60
2019-03-05T19:55:08.278Z,5.70
2019-03-05T19:57:39.959Z,5.80
2019-03-05T20:00:17.412Z,5.80
2019-03-05T20:02:49.210Z,5.80
2019-03-05T20:05:20.799Z,5.90
2019-03-05T20:07:56.294Z,6.00
2019-03-05T20:10:33.670Z,6.00
2019-03-05T20:13:07.248Z,5.90
2019-03-05T20:15:39.803Z,5.70
2019-03-05T20:18:11.514Z,5.50
2019-03-05T20:20:43.973Z,5.40
2019-03-05T20:23:15.794Z,5.30
2019-03-05T20:25:48.399Z,5.30
2019-03-05T20:28:20.190Z,5.30
2019-03-05T20:30:51.636Z,5.30
2019-03-05T20:33:23.163Z,5.30
2019-03-05T20:35:55.003Z,5.40
2019-03-05T20:38:26.441Z,5.30
2019-03-05T20:40:58.019Z,5.30
2019-03-05T20:43:29.453Z,5.20
2019-03-05T20:46:11.926Z,5.10
2019-03-05T20:48:43.601Z,5.10
2019-03-05T20:51:14.912Z,5.20
2019-03-05T20:53:46.407Z,5.30
2019-03-05T20:56:17.749Z,5.40
2019-03-05T20:58:48.833Z,5.30
2019-03-05T21:01:20.325Z,5.30
2019-03-05T21:03:51.523Z,5.10
2019-03-05T21:06:23.232Z,5.00
2019-03-05T21:08:54.021Z,4.90
2019-03-05T21:11:25.582Z,4.80
2019-03-05T21:13:56.523Z,4.90
2019-03-05T21:16:27.910Z,4.80
2019-03-05T21:18:59.243Z,4.70
2019-03-05T21:21:29.633Z,4.70
2019-03-05T21:24:00.497Z,4.50
2019-03-05T21:26:31.908Z,4.40
2019-03-05T21:29:02.238Z,4.40
2019-03-05T21:31:33.153Z,4.30
2019-03-05T21:34:03.333Z,4.20
2019-03-05T21:36:33.982Z,4.40
2019-03-05T21:39:05.709Z,4.40
2019-03-05T21:41:35.917Z,4.30
2019-03-05T21:44:06.114Z,4.30
2019-03-05T21:46:36.400Z,4.30
2019-03-05T21:49:06.565Z,4.40
2019-03-05T21:51:36.857Z,4.60
2019-03-05T21:54:07.151Z,4.60
2019-03-05T21:56:37.242Z,4.50
2019-03-05T21:59:07.453Z,4.30
2019-03-05T22:01:37.917Z,4.20
2019-03-05T22:04:08.195Z,4.10
2019-03-05T22:06:38.469Z,4.00
2019-03-05T22:09:08.755Z,4.00
2019-03-05T22:11:39.021Z,4.10
2019-03-05T22:14:09.291Z,4.30
2019-03-05T22:16:39.513Z,4.40
2019-03-05T22:19:09.710Z,4.30
2019-03-05T22:21:39.944Z,4.20
2019-03-05T22:24:10.413Z,4.20
2019-03-05T22:26:40.592Z,4.10
2019-03-05T22:29:11.685Z,4.00
2019-03-05T22:31:41.857Z,3.90
2019-03-05T22:34:12.014Z,3.70
2019-03-05T22:36:42.389Z,3.60
2019-03-05T22:39:12.613Z,3.50
2019-03-05T22:41:42.822Z,3.40
2019-03-05T22:44:13.079Z,3.30
2019-03-05T22:46:43.554Z,3.20
2019-03-05T22:49:13.749Z,3.20
2019-03-05T22:51:43.972Z,3.20
2019-03-05T22:54:14.141Z,3.20
2019-03-05T22:56:44.324Z,3.20
2019-03-05T22:59:14.561Z,3.20
2019-03-05T23:01:45.312Z,3.20
2019-03-05T23:04:19.083Z,3.20
2019-03-05T23:06:49.391Z,3.30
2019-03-05T23:09:23.991Z,3.50
2019-03-05T23:11:54.595Z,3.70
2019-03-05T23:14:25.410Z,3.90
2019-03-05T23:16:55.799Z,3.80
2019-03-05T23:19:26.440Z,3.70
2019-03-05T23:21:56.852Z,3.70
2019-03-05T23:24:27.144Z,3.60
2019-03-05T23:26:57.368Z,3.60
2019-03-05T23:29:47.886Z,3.80
2019-03-05T23:32:19.002Z,3.80
2019-03-05T23:34:49.431Z,3.60
2019-03-05T23:37:19.799Z,3.40
2019-03-05T23:39:50.208Z,3.10
2019-03-05T23:42:21.245Z,2.90
2019-03-05T23:44:51.472Z,2.80
2019-03-05T23:47:21.715Z,2.80
2019-03-05T23:49:52.188Z,3.00
2019-03-05T23:52:22.391Z,3.10
2019-03-05T23:54:52.639Z,3.10
2019-03-05T23:57:22.834Z,3.10
2019-03-05T23:59:53.087Z,3.20
